sensor_id;sensor_type;location;lat;lon;timestamp;pressure;altitude;pressure_sealevel;temperature;humidity
54882;BME280;40775;51.448;4.742;2023-09-19T00:01:00;100761.16;;;16.33;100.00
54882;BME280;40775;51.448;4.742;2023-09-19T00:03:27;100775.31;;;16.27;100.00
54882;BME280;40775;51.448;4.742;2023-09-19T00:05:55;100773.53;;;16.29;100.00
54882;BME280;40775;51.448;4.742;2023-09-19T00:08:24;100776.22;;;16.23;100.00
54882;BME280;40775;51.448;4.742;2023-09-19T00:10:51;100777.13;;;16.13;100.00
54882;BME280;40775;51.448;4.742;2023-09-19T00:13:21;100774.50;;;16.16;100.00
54882;BME280;40775;51.448;4.742;2023-09-19T00:15:48;100776.22;;;16.14;100.00
54882;BME280;40775;51.448;4.742;2023-09-19T00:18:19;100785.09;;;16.05;100.00
54882;BME280;40775;51.448;4.742;2023-09-19T00:20:48;100783.34;;;16.06;100.00
54882;BME280;40775;51.448;4.742;2023-09-19T00:23:16;100786.88;;;16.00;100.00
54882;BME280;40775;51.448;4.742;2023-09-19T00:25:44;100786.00;;;15.98;100.00
54882;BME280;40775;51.448;4.742;2023-09-19T00:28:12;100781.63;;;15.93;100.00
54882;BME280;40775;51.448;4.742;2023-09-19T00:30:43;100786.91;;;15.93;100.00
54882;BME280;40775;51.448;4.742;2023-09-19T00:33:11;100791.31;;;15.95;100.00
54882;BME280;40775;51.448;4.742;2023-09-19T00:35:51;100802.78;;;15.87;100.00
54882;BME280;40775;51.448;4.742;2023-09-19T00:38:19;100796.63;;;15.86;100.00
54882;BME280;40775;51.448;4.742;2023-09-19T00:40:50;100794.84;;;15.87;100.00
54882;BME280;40775;51.448;4.742;2023-09-19T00:43:20;100800.19;;;15.76;100.00
54882;BME280;40775;51.448;4.742;2023-09-19T00:45:51;100792.22;;;15.82;100.00
54882;BME280;40775;51.448;4.742;2023-09-19T00:48:24;100805.47;;;15.77;100.00
54882;BME280;40775;51.448;4.742;2023-09-19T00:50:54;100801.94;;;15.80;100.00
54882;BME280;40775;51.448;4.742;2023-09-19T00:53:24;100808.13;;;15.73;100.00
54882;BME280;40775;51.448;4.742;2023-09-19T00:55:54;100814.31;;;15.70;100.00
54882;BME280;40775;51.448;4.742;2023-09-19T00:58:22;100812.53;;;15.68;100.00
54882;BME280;40775;51.448;4.742;2023-09-19T01:00:49;100821.38;;;15.68;100.00
54882;BME280;40775;51.448;4.742;2023-09-19T01:03:17;100825.78;;;15.71;100.00
54882;BME280;40775;51.448;4.742;2023-09-19T01:05:45;100824.03;;;15.65;100.00
54882;BME280;40775;51.448;4.742;2023-09-19T01:08:12;100830.19;;;15.64;100.00
54882;BME280;40775;51.448;4.742;2023-09-19T01:11:20;100827.53;;;15.58;100.00
54882;BME280;40775;51.448;4.742;2023-09-19T01:14:07;100823.13;;;15.60;100.00
54882;BME280;40775;51.448;4.742;2023-09-19T01:17:09;100823.13;;;15.65;100.00
54882;BME280;40775;51.448;4.742;2023-09-19T01:26:17;100831.91;;;15.56;100.00
54882;BME280;40775;51.448;4.742;2023-09-19T01:29:01;100825.75;;;15.50;100.00
54882;BME280;40775;51.448;4.742;2023-09-19T01:31:37;100827.50;;;15.57;100.00
54882;BME280;40775;51.448;4.742;2023-09-19T01:34:06;100830.16;;;15.52;100.00
54882;BME280;40775;51.448;4.742;2023-09-19T01:36:36;100821.34;;;15.49;100.00
54882;BME280;40775;51.448;4.742;2023-09-19T01:39:13;100819.56;;;15.46;100.00
54882;BME280;40775;51.448;4.742;2023-09-19T01:42:14;100825.75;;;15.53;100.00
54882;BME280;40775;51.448;4.742;2023-09-19T01:51:10;100820.47;;;15.36;100.00
54882;BME280;40775;51.448;4.742;2023-09-19T01:54:00;100816.06;;;15.38;100.00
54882;BME280;40775;51.448;4.742;2023-09-19T01:56:40;100823.09;;;15.40;100.00
54882;BME280;40775;51.448;4.742;2023-09-19T01:59:14;100832.78;;;15.34;100.00
54882;BME280;40775;51.448;4.742;2023-09-19T02:01:45;100830.16;;;15.37;100.00
54882;BME280;40775;51.448;4.742;2023-09-19T02:04:12;100816.06;;;15.41;100.00
54882;BME280;40775;51.448;4.742;2023-09-19T02:06:41;100818.69;;;15.36;100.00
54882;BME280;40775;51.448;4.742;2023-09-19T02:09:08;100822.22;;;15.40;100.00
54882;BME280;40775;51.448;4.742;2023-09-19T02:11:36;100819.59;;;15.37;100.00
54882;BME280;40775;51.448;4.742;2023-09-19T02:14:03;100817.81;;;15.39;100.00
54882;BME280;40775;51.448;4.742;2023-09-19T02:16:31;100821.34;;;15.38;100.00
54882;BME280;40775;51.448;4.742;2023-09-19T02:18:58;100823.13;;;15.37;100.00
54882;BME280;40775;51.448;4.742;2023-09-19T02:21:26;100835.44;;;15.34;100.00
54882;BME280;40775;51.448;4.742;2023-09-19T02:23:57;100835.44;;;15.34;100.00
54882;BME280;40775;51.448;4.742;2023-09-19T02:26:25;100828.38;;;15.33;100.00
54882;BME280;40775;51.448;4.742;2023-09-19T02:28:54;100832.78;;;15.31;100.00
54882;BME280;40775;51.448;4.742;2023-09-19T02:31:22;100831.03;;;15.25;100.00
54882;BME280;40775;51.448;4.742;2023-09-19T02:33:49;100820.44;;;15.24;100.00
54882;BME280;40775;51.448;4.742;2023-09-19T02:36:16;100828.38;;;15.22;100.00
54882;BME280;40775;51.448;4.742;2023-09-19T02:38:44;100831.03;;;15.19;100.00
54882;BME280;40775;51.448;4.742;2023-09-19T02:41:11;100830.13;;;15.15;100.00
54882;BME280;40775;51.448;4.742;2023-09-19T02:43:39;100835.44;;;15.19;100.00
54882;BME280;40775;51.448;4.742;2023-09-19T02:46:06;100836.31;;;15.07;100.00
54882;BME280;40775;51.448;4.742;2023-09-19T02:48:33;100833.66;;;15.08;100.00
54882;BME280;40775;51.448;4.742;2023-09-19T02:51:02;100841.56;;;15.05;100.00
54882;BME280;40775;51.448;4.742;2023-09-19T02:53:31;100840.69;;;15.06;100.00
54882;BME280;40775;51.448;4.742;2023-09-19T02:55:59;100833.66;;;15.07;100.00
54882;BME280;40775;51.448;4.742;2023-09-19T02:58:26;100850.38;;;15.03;100.00
54882;BME280;40775;51.448;4.742;2023-09-19T03:00:54;100844.25;;;15.11;100.00
54882;BME280;40775;51.448;4.742;2023-09-19T03:03:22;100852.13;;;14.98;100.00
54882;BME280;40775;51.448;4.742;2023-09-19T03:05:50;100852.13;;;15.02;100.00
54882;BME280;40775;51.448;4.742;2023-09-19T03:08:21;100852.13;;;14.95;100.00
54882;BME280;40775;51.448;4.742;2023-09-19T03:10:48;100850.34;;;14.89;100.00
54882;BME280;40775;51.448;4.742;2023-09-19T03:13:16;100847.72;;;14.95;100.00
54882;BME280;40775;51.448;4.742;2023-09-19T03:15:43;100853.00;;;14.86;100.00
54882;BME280;40775;51.448;4.742;2023-09-19T03:18:13;100845.06;;;14.91;100.00
54882;BME280;40775;51.448;4.742;2023-09-19T03:20:40;100856.53;;;14.97;100.00
54882;BME280;40775;51.448;4.742;2023-09-19T03:23:07;100849.47;;;14.93;100.00
54882;BME280;40775;51.448;4.742;2023-09-19T03:25:35;100859.16;;;14.97;100.00
54882;BME280;40775;51.448;4.742;2023-09-19T03:28:04;100856.53;;;15.03;100.00
54882;BME280;40775;51.448;4.742;2023-09-19T03:30:34;100843.31;;;15.05;100.00
54882;BME280;40775;51.448;4.742;2023-09-19T03:33:01;100853.94;;;15.08;100.00
54882;BME280;40775;51.448;4.742;2023-09-19T03:35:28;100850.41;;;15.09;100.00
54882;BME280;40775;51.448;4.742;2023-09-19T03:37:55;100845.13;;;15.12;100.00
54882;BME280;40775;51.448;4.742;2023-09-19T03:40:22;100837.19;;;15.17;100.00
54882;BME280;40775;51.448;4.742;2023-09-19T03:42:50;100837.19;;;15.15;100.00
54882;BME280;40775;51.448;4.742;2023-09-19T03:45:17;100844.25;;;15.11;100.00
54882;BME280;40775;51.448;4.742;2023-09-19T03:47:45;100845.06;;;15.01;100.00
54882;BME280;40775;51.448;4.742;2023-09-19T03:50:14;100840.66;;;15.03;100.00
54882;BME280;40775;51.448;4.742;2023-09-19T03:52:45;100843.31;;;15.03;100.00
54882;BME280;40775;51.448;4.742;2023-09-19T03:55:18;100838.03;;;15.06;100.00
54882;BME280;40775;51.448;4.742;2023-09-19T03:57:48;100839.78;;;15.06;100.00
54882;BME280;40775;51.448;4.742;2023-09-19T04:00:16;100844.25;;;15.13;100.00
54882;BME280;40775;51.448;4.742;2023-09-19T04:02:48;100843.38;;;15.20;100.00
54882;BME280;40775;51.448;4.742;2023-09-19T04:05:16;100850.41;;;15.24;100.00
54882;BME280;40775;51.448;4.742;2023-09-19T04:07:43;100855.69;;;15.18;100.00
54882;BME280;40775;51.448;4.742;2023-09-19T04:10:10;100862.75;;;15.16;100.00
54882;BME280;40775;51.448;4.742;2023-09-19T04:12:51;100861.88;;;15.25;100.00
54882;BME280;40775;51.448;4.742;2023-09-19T04:15:20;100871.56;;;15.17;100.00
54882;BME280;40775;51.448;4.742;2023-09-19T04:17:50;100865.41;;;15.18;100.00
54882;BME280;40775;51.448;4.742;2023-09-19T04:20:18;100879.50;;;15.23;100.00
54882;BME280;40775;51.448;4.742;2023-09-19T04:22:52;100870.69;;;15.19;100.00
54882;BME280;40775;51.448;4.742;2023-09-19T04:25:20;100885.69;;;15.29;100.00
54882;BME280;40775;51.448;4.742;2023-09-19T04:27:48;100888.31;;;15.25;100.00
54882;BME280;40775;51.448;4.742;2023-09-19T04:30:15;100883.03;;;15.22;100.00
54882;BME280;40775;51.448;4.742;2023-09-19T04:32:43;100890.97;;;15.19;100.00
54882;BME280;40775;51.448;4.742;2023-09-19T04:35:10;100888.31;;;15.28;100.00
54882;BME280;40775;51.448;4.742;2023-09-19T04:37:39;100905.06;;;15.28;100.00
54882;BME280;40775;51.448;4.742;2023-09-19T04:40:10;100915.66;;;15.24;100.00
54882;BME280;40775;51.448;4.742;2023-09-19T04:42:43;100911.25;;;15.30;100.00
54882;BME280;40775;51.448;4.742;2023-09-19T04:45:11;100907.72;;;15.31;100.00
54882;BME280;40775;51.448;4.742;2023-09-19T04:47:38;100919.19;;;15.30;100.00
54882;BME280;40775;51.448;4.742;2023-09-19T04:50:09;100914.78;;;15.31;100.00
54882;BME280;40775;51.448;4.742;2023-09-19T04:52:41;100917.41;;;15.29;100.00
54882;BME280;40775;51.448;4.742;2023-09-19T04:55:14;100923.59;;;15.27;100.00
54882;BME280;40775;51.448;4.742;2023-09-19T04:57:51;100928.00;;;15.25;100.00
54882;BME280;40775;51.448;4.742;2023-09-19T05:00:21;100933.28;;;15.20;100.00
54882;BME280;40775;51.448;4.742;2023-09-19T05:02:52;100922.69;;;15.22;100.00
54882;BME280;40775;51.448;4.742;2023-09-19T05:05:19;100927.09;;;15.21;100.00
54882;BME280;40775;51.448;4.742;2023-09-19T05:07:46;100929.75;;;15.23;100.00
54882;BME280;40775;51.448;4.742;2023-09-19T05:10:15;100929.75;;;15.24;100.00
54882;BME280;40775;51.448;4.742;2023-09-19T05:12:45;100922.69;;;15.22;100.00
54882;BME280;40775;51.448;4.742;2023-09-19T05:15:17;100918.28;;;15.16;100.00
54882;BME280;40775;51.448;4.742;2023-09-19T05:17:51;100920.94;;;15.18;100.00
54882;BME280;40775;51.448;4.742;2023-09-19T05:20:23;100926.22;;;15.14;100.00
54882;BME280;40775;51.448;4.742;2023-09-19T05:23:11;100927.09;;;15.12;100.00
54882;BME280;40775;51.448;4.742;2023-09-19T05:25:40;100932.38;;;15.17;100.00
54882;BME280;40775;51.448;4.742;2023-09-19T05:28:09;100922.69;;;15.12;100.00
54882;BME280;40775;51.448;4.742;2023-09-19T05:30:42;100927.97;;;15.15;100.00
54882;BME280;40775;51.448;4.742;2023-09-19T05:33:13;100943.84;;;15.11;100.00
54882;BME280;40775;51.448;4.742;2023-09-19T05:35:40;100939.41;;;15.08;100.00
54882;BME280;40775;51.448;4.742;2023-09-19T05:38:08;100940.31;;;15.09;100.00
54882;BME280;40775;51.448;4.742;2023-09-19T05:40:36;100939.38;;;15.05;100.00
54882;BME280;40775;51.448;4.742;2023-09-19T05:43:04;100950.00;;;15.11;100.00
54882;BME280;40775;51.448;4.742;2023-09-19T05:45:32;100946.47;;;15.11;100.00
54882;BME280;40775;51.448;4.742;2023-09-19T05:48:11;100943.78;;;15.06;100.00
54882;BME280;40775;51.448;4.742;2023-09-19T05:50:41;100946.41;;;15.00;100.00
54882;BME280;40775;51.448;4.742;2023-09-19T05:53:08;100952.59;;;15.02;100.00
54882;BME280;40775;51.448;4.742;2023-09-19T05:55:40;100957.88;;;15.04;100.00
54882;BME280;40775;51.448;4.742;2023-09-19T05:58:07;100956.97;;;14.96;100.00
54882;BME280;40775;51.448;4.742;2023-09-19T06:00:34;100953.47;;;15.00;100.00
54882;BME280;40775;51.448;4.742;2023-09-19T06:03:04;100953.47;;;14.98;100.00
54882;BME280;40775;51.448;4.742;2023-09-19T06:05:31;100948.16;;;14.95;100.00
54882;BME280;40775;51.448;4.742;2023-09-19T06:07:58;100949.94;;;14.96;100.00
54882;BME280;40775;51.448;4.742;2023-09-19T06:10:35;100954.34;;;14.99;100.00
54882;BME280;40775;51.448;4.742;2023-09-19T06:13:03;100959.63;;;14.99;100.00
54882;BME280;40775;51.448;4.742;2023-09-19T06:15:55;100963.16;;;15.01;100.00
54882;BME280;40775;51.448;4.742;2023-09-19T06:18:23;100958.75;;;14.98;100.00
54882;BME280;40775;51.448;4.742;2023-09-19T06:20:53;100969.38;;;15.07;100.00
54882;BME280;40775;51.448;4.742;2023-09-19T06:23:21;100968.50;;;15.07;100.00
54882;BME280;40775;51.448;4.742;2023-09-19T06:25:48;100967.63;;;15.11;100.00
54882;BME280;40775;51.448;4.742;2023-09-19T06:28:15;100973.81;;;15.16;100.00
54882;BME280;40775;51.448;4.742;2023-09-19T06:30:45;100988.81;;;15.20;100.00
54882;BME280;40775;51.448;4.742;2023-09-19T06:33:12;100980.00;;;15.23;100.00
54882;BME280;40775;51.448;4.742;2023-09-19T06:35:42;100979.13;;;15.22;100.00
54882;BME280;40775;51.448;4.742;2023-09-19T06:38:13;100979.13;;;15.24;100.00
54882;BME280;40775;51.448;4.742;2023-09-19T06:40:42;100990.59;;;15.29;100.00
54882;BME280;40775;51.448;4.742;2023-09-19T06:43:10;100995.94;;;15.35;100.00
54882;BME280;40775;51.448;4.742;2023-09-19T06:45:38;100995.94;;;15.41;100.00
54882;BME280;40775;51.448;4.742;2023-09-19T06:48:05;100997.69;;;15.39;100.00
54882;BME280;40775;51.448;4.742;2023-09-19T06:50:33;100988.88;;;15.40;100.00
54882;BME280;40775;51.448;4.742;2023-09-19T06:53:01;100992.41;;;15.43;100.00
54882;BME280;40775;51.448;4.742;2023-09-19T06:55:29;100974.78;;;15.44;100.00
54882;BME280;40775;51.448;4.742;2023-09-19T06:57:59;100978.31;;;15.51;100.00
54882;BME280;40775;51.448;4.742;2023-09-19T07:00:26;100980.13;;;15.59;100.00
54882;BME280;40775;51.448;4.742;2023-09-19T07:02:59;100984.56;;;15.62;100.00
54882;BME280;40775;51.448;4.742;2023-09-19T07:05:28;100979.25;;;15.60;100.00
54882;BME280;40775;51.448;4.742;2023-09-19T07:07:56;100974.00;;;15.65;100.00
54882;BME280;40775;51.448;4.742;2023-09-19T07:10:23;100978.41;;;15.72;100.00
54882;BME280;40775;51.448;4.742;2023-09-19T07:13:04;100984.56;;;15.75;100.00
54882;BME280;40775;51.448;4.742;2023-09-19T07:15:37;100975.75;;;15.75;100.00
54882;BME280;40775;51.448;4.742;2023-09-19T07:18:14;100977.53;;;15.82;100.00
54882;BME280;40775;51.448;4.742;2023-09-19T07:20:44;100982.84;;;15.93;100.00
54882;BME280;40775;51.448;4.742;2023-09-19T07:23:19;100977.53;;;15.97;100.00
54882;BME280;40775;51.448;4.742;2023-09-19T07:25:49;100980.19;;;16.06;100.00
54882;BME280;40775;51.448;4.742;2023-09-19T07:28:16;100978.41;;;16.07;100.00
54882;BME280;40775;51.448;4.742;2023-09-19T07:30:44;100981.94;;;16.06;100.00
54882;BME280;40775;51.448;4.742;2023-09-19T07:33:11;100988.13;;;16.14;100.00
54882;BME280;40775;51.448;4.742;2023-09-19T07:35:39;100983.72;;;16.22;100.00
54882;BME280;40775;51.448;4.742;2023-09-19T07:38:08;100974.88;;;16.29;100.00
54882;BME280;40775;51.448;4.742;2023-09-19T07:40:38;100966.91;;;16.34;100.00
54882;BME280;40775;51.448;4.742;2023-09-19T07:43:06;100967.81;;;16.34;100.00
54882;BME280;40775;51.448;4.742;2023-09-19T07:45:34;100974.84;;;16.38;100.00
54882;BME280;40775;51.448;4.742;2023-09-19T07:48:01;100982.81;;;16.48;100.00
54882;BME280;40775;51.448;4.742;2023-09-19T07:50:33;100983.69;;;16.53;100.00
54882;BME280;40775;51.448;4.742;2023-09-19T07:53:01;100974.84;;;16.57;100.00
54882;BME280;40775;51.448;4.742;2023-09-19T07:55:28;100987.19;;;16.65;100.00
54882;BME280;40775;51.448;4.742;2023-09-19T07:57:56;100983.69;;;16.74;100.00
54882;BME280;40775;51.448;4.742;2023-09-19T08:00:23;100974.84;;;16.75;100.00
54882;BME280;40775;51.448;4.742;2023-09-19T08:02:50;100972.16;;;16.80;100.00
54882;BME280;40775;51.448;4.742;2023-09-19T08:05:27;100983.63;;;16.86;100.00
54882;BME280;40775;51.448;4.742;2023-09-19T08:07:54;100976.53;;;16.90;100.00
54882;BME280;40775;51.448;4.742;2023-09-19T08:10:23;100977.41;;;16.96;100.00
54882;BME280;40775;51.448;4.742;2023-09-19T08:12:54;100978.28;;;17.02;100.00
54882;BME280;40775;51.448;4.742;2023-09-19T08:15:24;100972.94;;;17.11;100.00
54882;BME280;40775;51.448;4.742;2023-09-19T08:17:52;100964.91;;;17.20;100.00
54882;BME280;40775;51.448;4.742;2023-09-19T08:20:20;100963.13;;;17.23;100.00
54882;BME280;40775;51.448;4.742;2023-09-19T08:22:49;100965.72;;;17.37;100.00
54882;BME280;40775;51.448;4.742;2023-09-19T08:25:19;100963.91;;;17.45;100.00
54882;BME280;40775;51.448;4.742;2023-09-19T08:27:47;100970.91;;;17.58;100.00
54882;BME280;40775;51.448;4.742;2023-09-19T08:30:17;100965.50;;;17.77;100.00
54882;BME280;40775;51.448;4.742;2023-09-19T08:32:45;100959.22;;;17.88;100.00
54882;BME280;40775;51.448;4.742;2023-09-19T08:35:13;100960.03;;;17.98;100.00
54882;BME280;40775;51.448;4.742;2023-09-19T08:37:42;100959.13;;;17.98;100.00
54882;BME280;40775;51.448;4.742;2023-09-19T08:40:12;100960.97;;;17.91;100.00
54882;BME280;40775;51.448;4.742;2023-09-19T08:42:51;100960.03;;;17.98;100.00
54882;BME280;40775;51.448;4.742;2023-09-19T08:45:19;100956.41;;;18.05;100.00
54882;BME280;40775;51.448;4.742;2023-09-19T08:47:54;100961.66;;;18.14;100.00
54882;BME280;40775;51.448;4.742;2023-09-19T08:50:28;100957.19;;;18.18;100.00
54882;BME280;40775;51.448;4.742;2023-09-19T08:52:56;100950.81;;;18.39;100.00
54882;BME280;40775;51.448;4.742;2023-09-19T08:55:28;100948.78;;;18.59;100.00
54882;BME280;40775;51.448;4.742;2023-09-19T08:58:03;100938.16;;;18.65;100.00
54882;BME280;40775;51.448;4.742;2023-09-19T09:00:31;100942.41;;;18.80;100.00
54882;BME280;40775;51.448;4.742;2023-09-19T09:02:59;100941.50;;;18.79;100.00
54882;BME280;40775;51.448;4.742;2023-09-19T09:05:28;100943.25;;;18.82;100.00
54882;BME280;40775;51.448;4.742;2023-09-19T09:07:59;100944.94;;;18.88;100.00
54882;BME280;40775;51.448;4.742;2023-09-19T09:10:26;100938.91;;;18.76;100.00
54882;BME280;40775;51.448;4.742;2023-09-19T09:12:54;100930.78;;;18.86;100.00
54882;BME280;40775;51.448;4.742;2023-09-19T09:15:24;100939.53;;;18.97;100.00
54882;BME280;40775;51.448;4.742;2023-09-19T09:17:52;100927.94;;;19.02;100.00
54882;BME280;40775;51.448;4.742;2023-09-19T09:20:23;100933.94;;;19.18;100.00
54882;BME280;40775;51.448;4.742;2023-09-19T09:22:57;100930.41;;;19.14;100.00
54882;BME280;40775;51.448;4.742;2023-09-19T09:25:53;100926.78;;;19.22;100.00
54882;BME280;40775;51.448;4.742;2023-09-19T09:28:31;100920.50;;;19.27;100.00
54882;BME280;40775;51.448;4.742;2023-09-19T09:31:00;100919.34;;;19.47;100.00
54882;BME280;40775;51.448;4.742;2023-09-19T09:33:36;100914.91;;;19.45;100.00
54882;BME280;40775;51.448;4.742;2023-09-19T09:36:03;100910.41;;;19.51;100.00
54882;BME280;40775;51.448;4.742;2023-09-19T09:38:48;100908.72;;;19.43;100.00
54882;BME280;40775;51.448;4.742;2023-09-19T09:41:36;100914.84;;;19.50;100.00
54882;BME280;40775;51.448;4.742;2023-09-19T09:44:15;100910.22;;;19.63;100.00
54882;BME280;40775;51.448;4.742;2023-09-19T09:46:46;100903.63;;;19.87;100.00
54882;BME280;40775;51.448;4.742;2023-09-19T09:49:28;100901.00;;;19.85;100.00
54882;BME280;40775;51.448;4.742;2023-09-19T09:52:03;100905.47;;;19.83;100.00
54882;BME280;40775;51.448;4.742;2023-09-19T09:55:04;100914.38;;;19.81;100.00
54882;BME280;40775;51.448;4.742;2023-09-19T09:57:35;100909.66;;;19.96;100.00
54882;BME280;40775;51.448;4.742;2023-09-19T10:00:03;100906.72;;;20.13;100.00
54882;BME280;40775;51.448;4.742;2023-09-19T10:02:43;100909.34;;;20.15;100.00
54882;BME280;40775;51.448;4.742;2023-09-19T10:05:20;100910.09;;;20.21;100.00
54882;BME280;40775;51.448;4.742;2023-09-19T10:07:50;100902.69;;;20.38;100.00
54882;BME280;40775;51.448;4.742;2023-09-19T10:10:37;100896.50;;;20.36;100.00
54882;BME280;40775;51.448;4.742;2023-09-19T10:13:12;100899.75;;;20.55;100.00
54882;BME280;40775;51.448;4.742;2023-09-19T10:15:43;100897.72;;;20.66;100.00
54882;BME280;40775;51.448;4.742;2023-09-19T10:18:26;100888.69;;;20.74;100.00
54882;BME280;40775;51.448;4.742;2023-09-19T10:20:56;100889.44;;;20.79;100.00
54882;BME280;40775;51.448;4.742;2023-09-19T10:23:26;100885.66;;;20.90;100.00
54882;BME280;40775;51.448;4.742;2023-09-19T10:25:58;100881.09;;;20.95;100.00
54882;BME280;40775;51.448;4.742;2023-09-19T10:28:28;100873.97;;;20.96;100.00
54882;BME280;40775;51.448;4.742;2023-09-19T10:30:58;100870.06;;;21.12;100.00
54882;BME280;40775;51.448;4.742;2023-09-19T10:33:35;100866.47;;;21.13;100.00
54882;BME280;40775;51.448;4.742;2023-09-19T10:36:05;100856.22;;;21.34;100.00
54882;BME280;40775;51.448;4.742;2023-09-19T10:38:33;100866.78;;;21.40;100.00
54882;BME280;40775;51.448;4.742;2023-09-19T10:41:02;100846.25;;;21.42;100.00
54882;BME280;40775;51.448;4.742;2023-09-19T10:43:32;100837.41;;;21.40;100.00
54882;BME280;40775;51.448;4.742;2023-09-19T10:46:07;100832.97;;;21.39;100.00
54882;BME280;40775;51.448;4.742;2023-09-19T10:48:39;100833.69;;;21.45;100.00
54882;BME280;40775;51.448;4.742;2023-09-19T10:51:21;100842.97;;;21.66;100.00
54882;BME280;40775;51.448;4.742;2023-09-19T10:54:01;100834.63;;;21.78;100.00
54882;BME280;40775;51.448;4.742;2023-09-19T10:56:37;100841.72;;;21.79;100.00
54882;BME280;40775;51.448;4.742;2023-09-19T11:01:50;100842.56;;;21.81;100.00
54882;BME280;40775;51.448;4.742;2023-09-19T11:04:31;100830.78;;;21.88;100.00
54882;BME280;40775;51.448;4.742;2023-09-19T11:07:07;100839.97;;;21.78;100.00
54882;BME280;40775;51.448;4.742;2023-09-19T11:09:52;100817.16;;;21.99;100.00
54882;BME280;40775;51.448;4.742;2023-09-19T11:15:08;100804.00;;;21.92;100.00
54882;BME280;40775;51.448;4.742;2023-09-19T11:17:39;100797.75;;;21.93;100.00
54882;BME280;40775;51.448;4.742;2023-09-19T11:30:51;100795.16;;;22.22;100.00
54882;BME280;40775;51.448;4.742;2023-09-19T11:33:30;100786.28;;;22.22;100.00
54882;BME280;40775;51.448;4.742;2023-09-19T11:46:34;100779.50;;;22.39;100.00
54882;BME280;40775;51.448;4.742;2023-09-19T11:49:09;100788.91;;;22.23;100.00
54882;BME280;40775;51.448;4.742;2023-09-19T11:51:43;100796.88;;;22.25;100.00
54882;BME280;40775;51.448;4.742;2023-09-19T11:54:13;100798.91;;;22.15;100.00
54882;BME280;40775;51.448;4.742;2023-09-19T11:56:45;100800.75;;;22.13;100.00
54882;BME280;40775;51.448;4.742;2023-09-19T11:59:23;100798.09;;;22.13;100.00
54882;BME280;40775;51.448;4.742;2023-09-19T12:01:53;100788.81;;;22.26;100.00
54882;BME280;40775;51.448;4.742;2023-09-19T12:04:38;100797.13;;;22.15;100.00
54882;BME280;40775;51.448;4.742;2023-09-19T12:07:16;100796.91;;;22.23;100.00
54882;BME280;40775;51.448;4.742;2023-09-19T12:09:51;100792.22;;;22.31;100.00
54882;BME280;40775;51.448;4.742;2023-09-19T12:12:32;100783.03;;;22.40;100.00
54882;BME280;40775;51.448;4.742;2023-09-19T12:15:03;100774.63;;;22.54;100.00
54882;BME280;40775;51.448;4.742;2023-09-19T12:17:38;100777.06;;;22.32;100.00
54882;BME280;40775;51.448;4.742;2023-09-19T12:20:08;100783.38;;;22.29;100.00
54882;BME280;40775;51.448;4.742;2023-09-19T12:22:46;100778.66;;;22.37;100.00
54882;BME280;40775;51.448;4.742;2023-09-19T12:25:14;100786.97;;;22.28;100.00
54882;BME280;40775;51.448;4.742;2023-09-19T12:27:45;100786.28;;;22.22;100.00
54882;BME280;40775;51.448;4.742;2023-09-19T12:30:15;100785.59;;;22.13;100.00
54882;BME280;40775;51.448;4.742;2023-09-19T12:32:47;100780.47;;;22.06;100.00
54882;BME280;40775;51.448;4.742;2023-09-19T12:35:29;100778.13;;;21.94;100.00
54882;BME280;40775;51.448;4.742;2023-09-19T12:38:06;100785.00;;;22.02;100.00
54882;BME280;40775;51.448;4.742;2023-09-19T12:40:34;100784.66;;;22.14;100.00
54882;BME280;40775;51.448;4.742;2023-09-19T12:43:06;100778.63;;;22.08;100.00
54882;BME280;40775;51.448;4.742;2023-09-19T12:45:35;100777.09;;;21.98;100.00
54882;BME280;40775;51.448;4.742;2023-09-19T12:48:25;100785.13;;;21.98;100.00
54882;BME280;40775;51.448;4.742;2023-09-19T12:53:34;100782.25;;;22.05;100.00
54882;BME280;40775;51.448;4.742;2023-09-19T12:56:05;100780.38;;;22.09;100.00
54882;BME280;40775;51.448;4.742;2023-09-19T12:58:55;100780.47;;;22.06;100.00
54882;BME280;40775;51.448;4.742;2023-09-19T13:01:26;100778.63;;;22.08;100.00
54882;BME280;40775;51.448;4.742;2023-09-19T13:06:39;100772.50;;;22.03;100.00
54882;BME280;40775;51.448;4.742;2023-09-19T13:09:12;100784.19;;;21.99;100.00
54882;BME280;40775;51.448;4.742;2023-09-19T13:11:41;100789.31;;;22.08;100.00
54882;BME280;40775;51.448;4.742;2023-09-19T13:14:26;100786.66;;;22.08;100.00
54882;BME280;40775;51.448;4.742;2023-09-19T13:17:06;100779.78;;;21.98;100.00
54882;BME280;40775;51.448;4.742;2023-09-19T13:19:50;100777.47;;;21.84;100.00
54882;BME280;40775;51.448;4.742;2023-09-19T13:22:43;100772.22;;;21.81;100.00
54882;BME280;40775;51.448;4.742;2023-09-19T13:25:22;100775.44;;;21.94;100.00
54882;BME280;40775;51.448;4.742;2023-09-19T13:27:54;100777.38;;;21.87;100.00
54882;BME280;40775;51.448;4.742;2023-09-19T13:30:28;100787.00;;;21.94;100.00
54882;BME280;40775;51.448;4.742;2023-09-19T13:33:09;100786.50;;;21.80;100.00
54882;BME280;40775;51.448;4.742;2023-09-19T13:35:38;100775.94;;;21.75;100.00
54882;BME280;40775;51.448;4.742;2023-09-19T13:38:07;100780.34;;;21.76;100.00
54882;BME280;40775;51.448;4.742;2023-09-19T13:40:40;100778.56;;;21.77;100.00
54882;BME280;40775;51.448;4.742;2023-09-19T13:43:09;100779.09;;;21.89;100.00
54882;BME280;40775;51.448;4.742;2023-09-19T13:45:37;100779.97;;;21.90;100.00
54882;BME280;40775;51.448;4.742;2023-09-19T13:48:05;100774.56;;;21.93;100.00